sensor_id;sensor_type;location;lat;lon;timestamp;pressure;altitude;pressure_sealevel;temperature
45701;BMP280;36277;32.852;-116.998;2022-10-13T00:00:44;100196.31;;;23.39
45701;BMP280;36277;32.852;-116.998;2022-10-13T00:03:10;100191.81;;;23.23
45701;BMP280;36277;32.852;-116.998;2022-10-13T00:05:46;100199.31;;;23.15
45701;BMP280;36277;32.852;-116.998;2022-10-13T00:08:14;100194.03;;;23.05
45701;BMP280;36277;32.852;-116.998;2022-10-13T00:10:43;100199.38;;;23.44
45701;BMP280;36277;32.852;-116.998;2022-10-13T00:13:10;100201.84;;;23.68
45701;BMP280;36277;32.852;-116.998;2022-10-13T00:15:41;100206.16;;;23.99
45701;BMP280;36277;32.852;-116.998;2022-10-13T00:18:08;100204.06;;;24.15
45701;BMP280;36277;32.852;-116.998;2022-10-13T00:20:35;100208.88;;;24.28
45701;BMP280;36277;32.852;-116.998;2022-10-13T00:23:01;100193.28;;;24.35
45701;BMP280;36277;32.852;-116.998;2022-10-13T00:25:27;100202.00;;;24.38
45701;BMP280;36277;32.852;-116.998;2022-10-13T00:27:53;100206.72;;;24.09
45701;BMP280;36277;32.852;-116.998;2022-10-13T00:30:20;100209.00;;;23.77
45701;BMP280;36277;32.852;-116.998;2022-10-13T00:32:46;100199.09;;;23.53
45701;BMP280;36277;32.852;-116.998;2022-10-13T00:35:13;100194.78;;;23.22
45701;BMP280;36277;32.852;-116.998;2022-10-13T00:37:39;100206.63;;;23.22
45701;BMP280;36277;32.852;-116.998;2022-10-13T00:40:06;100206.63;;;23.22
45701;BMP280;36277;32.852;-116.998;2022-10-13T00:42:32;100204.19;;;23.27
45701;BMP280;36277;32.852;-116.998;2022-10-13T00:47:46;100216.50;;;23.68
45701;BMP280;36277;32.852;-116.998;2022-10-13T00:50:26;100214.44;;;23.85
45701;BMP280;36277;32.852;-116.998;2022-10-13T00:52:56;100216.50;;;23.97
45701;BMP280;36277;32.852;-116.998;2022-10-13T00:55:28;100212.25;;;24.09
45701;BMP280;36277;32.852;-116.998;2022-10-13T00:57:57;100205.22;;;24.21
45701;BMP280;36277;32.852;-116.998;2022-10-13T01:00:27;100214.53;;;24.20
45701;BMP280;36277;32.852;-116.998;2022-10-13T01:02:54;100215.28;;;24.00
45701;BMP280;36277;32.852;-116.998;2022-10-13T01:05:22;100223.59;;;23.63
45701;BMP280;36277;32.852;-116.998;2022-10-13T01:07:49;100223.84;;;23.39
45701;BMP280;36277;32.852;-116.998;2022-10-13T01:10:27;100223.66;;;23.26
45701;BMP280;36277;32.852;-116.998;2022-10-13T01:19:54;100229.75;;;23.50
45701;BMP280;36277;32.852;-116.998;2022-10-13T01:24:54;100232.78;;;23.78
45701;BMP280;36277;32.852;-116.998;2022-10-13T01:30:20;100235.06;;;24.03
45701;BMP280;36277;32.852;-116.998;2022-10-13T01:38:55;100236.59;;;24.20
45701;BMP280;36277;32.852;-116.998;2022-10-13T01:41:36;100243.91;;;23.99
45701;BMP280;36277;32.852;-116.998;2022-10-13T01:44:24;100251.69;;;24.24
45701;BMP280;36277;32.852;-116.998;2022-10-13T01:46:53;100249.88;;;24.31
45701;BMP280;36277;32.852;-116.998;2022-10-13T01:49:26;100252.16;;;24.42
45701;BMP280;36277;32.852;-116.998;2022-10-13T01:51:56;100248.47;;;24.49
45701;BMP280;36277;32.852;-116.998;2022-10-13T01:54:25;100261.34;;;24.63
45701;BMP280;36277;32.852;-116.998;2022-10-13T01:56:55;100259.59;;;24.77
45701;BMP280;36277;32.852;-116.998;2022-10-13T01:59:23;100264.72;;;24.80
45701;BMP280;36277;32.852;-116.998;2022-10-13T02:01:59;100265.69;;;24.87
45701;BMP280;36277;32.852;-116.998;2022-10-13T02:07:43;100272.53;;;25.12
45701;BMP280;36277;32.852;-116.998;2022-10-13T02:10:45;100273.88;;;25.16
45701;BMP280;36277;32.852;-116.998;2022-10-13T02:13:05;100275.19;;;25.20
45701;BMP280;36277;32.852;-116.998;2022-10-13T02:15:45;100277.97;;;25.20
45701;BMP280;36277;32.852;-116.998;2022-10-13T02:18:15;100283.72;;;25.25
45701;BMP280;36277;32.852;-116.998;2022-10-13T02:20:43;100279.34;;;25.30
45701;BMP280;36277;32.852;-116.998;2022-10-13T02:23:13;100277.03;;;25.33
45701;BMP280;36277;32.852;-116.998;2022-10-13T02:25:41;100281.22;;;25.29
45701;BMP280;36277;32.852;-116.998;2022-10-13T02:28:08;100271.88;;;25.30
45701;BMP280;36277;32.852;-116.998;2022-10-13T02:30:38;100274.06;;;25.35
45701;BMP280;36277;32.852;-116.998;2022-10-13T02:33:06;100274.91;;;25.35
45701;BMP280;36277;32.852;-116.998;2022-10-13T02:35:33;100274.13;;;25.41
45701;BMP280;36277;32.852;-116.998;2022-10-13T02:38:00;100282.03;;;25.44
45701;BMP280;36277;32.852;-116.998;2022-10-13T02:40:26;100283.56;;;25.53
45701;BMP280;36277;32.852;-116.998;2022-10-13T02:42:53;100287.78;;;25.49
45701;BMP280;36277;32.852;-116.998;2022-10-13T02:45:19;100284.88;;;25.57
45701;BMP280;36277;32.852;-116.998;2022-10-13T02:47:45;100291.53;;;25.63
45701;BMP280;36277;32.852;-116.998;2022-10-13T02:50:12;100290.06;;;25.67
45701;BMP280;36277;32.852;-116.998;2022-10-13T02:52:38;100288.56;;;25.64
45701;BMP280;36277;32.852;-116.998;2022-10-13T02:55:05;100287.91;;;25.62
45701;BMP280;36277;32.852;-116.998;2022-10-13T02:57:32;100292.09;;;25.52
45701;BMP280;36277;32.852;-116.998;2022-10-13T02:59:58;100297.66;;;25.58
45701;BMP280;36277;32.852;-116.998;2022-10-13T03:02:28;100300.28;;;25.66
45701;BMP280;36277;32.852;-116.998;2022-10-13T03:04:54;100300.63;;;25.57
45701;BMP280;36277;32.852;-116.998;2022-10-13T03:07:20;100309.94;;;25.77
45701;BMP280;36277;32.852;-116.998;2022-10-13T03:09:47;100313.94;;;25.74
45701;BMP280;36277;32.852;-116.998;2022-10-13T03:12:13;100314.13;;;25.66
45701;BMP280;36277;32.852;-116.998;2022-10-13T03:14:42;100307.94;;;25.64
45701;BMP280;36277;32.852;-116.998;2022-10-13T03:17:09;100301.13;;;25.67
45701;BMP280;36277;32.852;-116.998;2022-10-13T03:19:35;100306.25;;;25.70
45701;BMP280;36277;32.852;-116.998;2022-10-13T03:22:01;100304.16;;;25.72
45701;BMP280;36277;32.852;-116.998;2022-10-13T03:24:28;100302.72;;;25.76
45701;BMP280;36277;32.852;-116.998;2022-10-13T03:26:54;100301.22;;;25.73
45701;BMP280;36277;32.852;-116.998;2022-10-13T03:29:20;100308.13;;;25.84
45701;BMP280;36277;32.852;-116.998;2022-10-13T03:31:48;100299.63;;;25.85
45701;BMP280;36277;32.852;-116.998;2022-10-13T03:34:15;100303.09;;;25.94
45701;BMP280;36277;32.852;-116.998;2022-10-13T03:36:42;100302.59;;;25.84
45701;BMP280;36277;32.852;-116.998;2022-10-13T03:39:08;100295.84;;;25.93
45701;BMP280;36277;32.852;-116.998;2022-10-13T03:41:34;100294.34;;;25.90
45701;BMP280;36277;32.852;-116.998;2022-10-13T03:44:01;100292.41;;;25.91
45701;BMP280;36277;32.852;-116.998;2022-10-13T03:46:28;100292.81;;;25.88
45701;BMP280;36277;32.852;-116.998;2022-10-13T03:48:55;100292.81;;;25.88
45701;BMP280;36277;32.852;-116.998;2022-10-13T03:51:22;100290.38;;;25.99
45701;BMP280;36277;32.852;-116.998;2022-10-13T03:53:50;100296.78;;;26.06
45701;BMP280;36277;32.852;-116.998;2022-10-13T03:56:22;100289.78;;;26.10
45701;BMP280;36277;32.852;-116.998;2022-10-13T03:58:48;100286.72;;;25.92
45701;BMP280;36277;32.852;-116.998;2022-10-13T04:01:21;100287.44;;;26.07
45701;BMP280;36277;32.852;-116.998;2022-10-13T04:03:49;100285.06;;;26.04
45701;BMP280;36277;32.852;-116.998;2022-10-13T04:06:15;100291.00;;;26.01
45701;BMP280;36277;32.852;-116.998;2022-10-13T04:08:42;100288.25;;;26.01
45701;BMP280;36277;32.852;-116.998;2022-10-13T04:11:11;100292.06;;;26.00
45701;BMP280;36277;32.852;-116.998;2022-10-13T04:13:39;100292.31;;;26.05
45701;BMP280;36277;32.852;-116.998;2022-10-13T04:16:13;100292.78;;;26.09
45701;BMP280;36277;32.852;-116.998;2022-10-13T04:18:39;100294.69;;;26.08
45701;BMP280;36277;32.852;-116.998;2022-10-13T04:21:10;100286.78;;;26.05
45701;BMP280;36277;32.852;-116.998;2022-10-13T04:23:37;100293.06;;;26.20
45701;BMP280;36277;32.852;-116.998;2022-10-13T04:26:05;100286.41;;;26.15
45701;BMP280;36277;32.852;-116.998;2022-10-13T04:28:32;100291.81;;;26.29
45701;BMP280;36277;32.852;-116.998;2022-10-13T04:31:03;100286.28;;;26.29
45701;BMP280;36277;32.852;-116.998;2022-10-13T04:33:30;100287.31;;;26.22
45701;BMP280;36277;32.852;-116.998;2022-10-13T04:35:56;100289.53;;;26.33
45701;BMP280;36277;32.852;-116.998;2022-10-13T04:38:22;100292.31;;;26.39
45701;BMP280;36277;32.852;-116.998;2022-10-13T04:40:49;100297.19;;;26.37
45701;BMP280;36277;32.852;-116.998;2022-10-13T04:43:15;100301.19;;;26.28
45701;BMP280;36277;32.852;-116.998;2022-10-13T04:45:41;100293.16;;;26.39
45701;BMP280;36277;32.852;-116.998;2022-10-13T04:48:08;100289.31;;;26.34
45701;BMP280;36277;32.852;-116.998;2022-10-13T04:50:34;100294.44;;;26.37
45701;BMP280;36277;32.852;-116.998;2022-10-13T04:53:00;100297.84;;;26.39
45701;BMP280;36277;32.852;-116.998;2022-10-13T04:55:26;100294.00;;;26.34
45701;BMP280;36277;32.852;-116.998;2022-10-13T04:57:52;100292.44;;;26.25
45701;BMP280;36277;32.852;-116.998;2022-10-13T05:00:19;100292.00;;;26.21
45701;BMP280;36277;32.852;-116.998;2022-10-13T05:02:45;100297.34;;;26.29
45701;BMP280;36277;32.852;-116.998;2022-10-13T05:05:11;100294.50;;;26.43
45701;BMP280;36277;32.852;-116.998;2022-10-13T05:07:38;100286.84;;;26.45
45701;BMP280;36277;32.852;-116.998;2022-10-13T05:10:04;100287.34;;;26.62
45701;BMP280;36277;32.852;-116.998;2022-10-13T05:12:31;100286.53;;;26.68
45701;BMP280;36277;32.852;-116.998;2022-10-13T05:14:57;100288.63;;;26.59
45701;BMP280;36277;32.852;-116.998;2022-10-13T05:17:23;100296.69;;;26.54
45701;BMP280;36277;32.852;-116.998;2022-10-13T05:19:50;100291.13;;;26.48
45701;BMP280;36277;32.852;-116.998;2022-10-13T05:22:16;100292.59;;;26.44
45701;BMP280;36277;32.852;-116.998;2022-10-13T05:24:42;100288.47;;;26.34
45701;BMP280;36277;32.852;-116.998;2022-10-13T05:27:11;100285.03;;;26.32
45701;BMP280;36277;32.852;-116.998;2022-10-13T05:29:37;100293.28;;;26.25
45701;BMP280;36277;32.852;-116.998;2022-10-13T05:32:04;100287.47;;;26.14
45701;BMP280;36277;32.852;-116.998;2022-10-13T05:34:31;100289.66;;;26.18
45701;BMP280;36277;32.852;-116.998;2022-10-13T05:36:58;100293.09;;;26.27
45701;BMP280;36277;32.852;-116.998;2022-10-13T05:39:25;100292.66;;;26.23
45701;BMP280;36277;32.852;-116.998;2022-10-13T05:41:51;100300.41;;;25.79
45701;BMP280;36277;32.852;-116.998;2022-10-13T05:44:18;100296.06;;;25.70
45701;BMP280;36277;32.852;-116.998;2022-10-13T05:46:44;100294.44;;;25.55
45701;BMP280;36277;32.852;-116.998;2022-10-13T05:49:10;100286.75;;;25.29
45701;BMP280;36277;32.852;-116.998;2022-10-13T05:51:40;100295.97;;;25.16
45701;BMP280;36277;32.852;-116.998;2022-10-13T05:54:15;100290.44;;;24.80
45701;BMP280;36277;32.852;-116.998;2022-10-13T05:56:49;100286.50;;;24.54
45701;BMP280;36277;32.852;-116.998;2022-10-13T05:59:18;100290.50;;;24.22
45701;BMP280;36277;32.852;-116.998;2022-10-13T06:01:46;100283.56;;;24.12
45701;BMP280;36277;32.852;-116.998;2022-10-13T06:04:21;100279.56;;;24.00
45701;BMP280;36277;32.852;-116.998;2022-10-13T06:06:50;100283.06;;;23.80
45701;BMP280;36277;32.852;-116.998;2022-10-13T06:09:16;100280.03;;;23.52
45701;BMP280;36277;32.852;-116.998;2022-10-13T06:11:43;100274.69;;;23.36
45701;BMP280;36277;32.852;-116.998;2022-10-13T06:14:09;100274.94;;;23.27
45701;BMP280;36277;32.852;-116.998;2022-10-13T06:16:35;100273.69;;;23.29
45701;BMP280;36277;32.852;-116.998;2022-10-13T06:19:03;100277.53;;;23.20
45701;BMP280;36277;32.852;-116.998;2022-10-13T06:21:30;100281.16;;;23.43
45701;BMP280;36277;32.852;-116.998;2022-10-13T06:23:56;100274.91;;;23.64
45701;BMP280;36277;32.852;-116.998;2022-10-13T06:26:22;100275.94;;;23.85
45701;BMP280;36277;32.852;-116.998;2022-10-13T06:28:49;100286.97;;;24.00
45701;BMP280;36277;32.852;-116.998;2022-10-13T06:31:15;100280.13;;;24.10
45701;BMP280;36277;32.852;-116.998;2022-10-13T06:33:41;100284.25;;;23.77
45701;BMP280;36277;32.852;-116.998;2022-10-13T06:36:08;100280.50;;;23.41
45701;BMP280;36277;32.852;-116.998;2022-10-13T06:38:34;100272.53;;;23.24
45701;BMP280;36277;32.852;-116.998;2022-10-13T06:41:01;100271.44;;;23.10
45701;BMP280;36277;32.852;-116.998;2022-10-13T06:43:29;100266.09;;;22.87
45701;BMP280;36277;32.852;-116.998;2022-10-13T06:45:59;100262.25;;;23.18
45701;BMP280;36277;32.852;-116.998;2022-10-13T06:48:27;100269.53;;;23.33
45701;BMP280;36277;32.852;-116.998;2022-10-13T06:50:53;100269.50;;;23.56
45701;BMP280;36277;32.852;-116.998;2022-10-13T06:53:19;100264.66;;;23.72
45701;BMP280;36277;32.852;-116.998;2022-10-13T06:55:48;100263.19;;;23.84
45701;BMP280;36277;32.852;-116.998;2022-10-13T06:58:15;100258.91;;;23.96
45701;BMP280;36277;32.852;-116.998;2022-10-13T07:00:41;100257.31;;;24.02
45701;BMP280;36277;32.852;-116.998;2022-10-13T07:03:09;100249.59;;;23.97
45701;BMP280;36277;32.852;-116.998;2022-10-13T07:05:36;100255.91;;;23.54
45701;BMP280;36277;32.852;-116.998;2022-10-13T07:08:02;100255.09;;;23.31
45701;BMP280;36277;32.852;-116.998;2022-10-13T07:10:28;100250.16;;;22.97
45701;BMP280;36277;32.852;-116.998;2022-10-13T07:12:54;100251.28;;;22.88
45701;BMP280;36277;32.852;-116.998;2022-10-13T07:15:21;100241.53;;;23.07
45701;BMP280;36277;32.852;-116.998;2022-10-13T07:17:50;100243.41;;;23.29
45701;BMP280;36277;32.852;-116.998;2022-10-13T07:20:19;100234.97;;;23.45
45701;BMP280;36277;32.852;-116.998;2022-10-13T07:22:46;100249.34;;;23.55
45701;BMP280;36277;32.852;-116.998;2022-10-13T07:25:13;100249.38;;;23.70
45701;BMP280;36277;32.852;-116.998;2022-10-13T07:27:40;100250.00;;;23.80
45701;BMP280;36277;32.852;-116.998;2022-10-13T07:30:10;100254.84;;;23.92
45701;BMP280;36277;32.852;-116.998;2022-10-13T07:32:37;100246.84;;;23.97
45701;BMP280;36277;32.852;-116.998;2022-10-13T07:35:04;100250.94;;;24.01
45701;BMP280;36277;32.852;-116.998;2022-10-13T07:37:30;100249.13;;;24.08
45701;BMP280;36277;32.852;-116.998;2022-10-13T07:39:57;100244.19;;;24.18
45701;BMP280;36277;32.852;-116.998;2022-10-13T07:42:25;100253.41;;;23.82
45701;BMP280;36277;32.852;-116.998;2022-10-13T07:44:52;100247.81;;;23.38
45701;BMP280;36277;32.852;-116.998;2022-10-13T07:47:18;100247.66;;;23.17
45701;BMP280;36277;32.852;-116.998;2022-10-13T07:49:44;100245.50;;;23.05
45701;BMP280;36277;32.852;-116.998;2022-10-13T07:52:10;100241.84;;;23.04
45701;BMP280;36277;32.852;-116.998;2022-10-13T07:54:36;100234.38;;;23.21
45701;BMP280;36277;32.852;-116.998;2022-10-13T07:57:03;100244.19;;;23.38
45701;BMP280;36277;32.852;-116.998;2022-10-13T07:59:31;100231.84;;;23.48
45701;BMP280;36277;32.852;-116.998;2022-10-13T08:01:58;100237.59;;;23.61
45701;BMP280;36277;32.852;-116.998;2022-10-13T08:04:31;100234.56;;;23.71
45701;BMP280;36277;32.852;-116.998;2022-10-13T08:06:58;100231.22;;;23.75
45701;BMP280;36277;32.852;-116.998;2022-10-13T08:09:25;100241.63;;;23.88
45701;BMP280;36277;32.852;-116.998;2022-10-13T08:11:52;100241.25;;;23.91
45701;BMP280;36277;32.852;-116.998;2022-10-13T08:14:19;100235.44;;;24.00
45701;BMP280;36277;32.852;-116.998;2022-10-13T08:16:46;100228.88;;;24.01
45701;BMP280;36277;32.852;-116.998;2022-10-13T08:19:13;100231.53;;;24.09
45701;BMP280;36277;32.852;-116.998;2022-10-13T08:21:39;100224.22;;;24.16
45701;BMP280;36277;32.852;-116.998;2022-10-13T08:24:10;100226.41;;;24.20
45701;BMP280;36277;32.852;-116.998;2022-10-13T08:26:37;100224.69;;;24.19
45701;BMP280;36277;32.852;-116.998;2022-10-13T08:29:03;100220.19;;;23.75
45701;BMP280;36277;32.852;-116.998;2022-10-13T08:31:30;100220.72;;;23.42
45701;BMP280;36277;32.852;-116.998;2022-10-13T08:33:56;100216.03;;;23.13
45701;BMP280;36277;32.852;-116.998;2022-10-13T08:36:23;100218.94;;;22.90
45701;BMP280;36277;32.852;-116.998;2022-10-13T08:38:50;100216.91;;;23.06
45701;BMP280;36277;32.852;-116.998;2022-10-13T08:41:19;100226.41;;;23.26
45701;BMP280;36277;32.852;-116.998;2022-10-13T08:43:58;100221.88;;;23.47
45701;BMP280;36277;32.852;-116.998;2022-10-13T08:46:36;100223.88;;;23.53
45701;BMP280;36277;32.852;-116.998;2022-10-13T08:49:05;100215.34;;;23.63
45701;BMP280;36277;32.852;-116.998;2022-10-13T08:51:32;100221.06;;;23.76
45701;BMP280;36277;32.852;-116.998;2022-10-13T08:53:58;100217.59;;;23.82
45701;BMP280;36277;32.852;-116.998;2022-10-13T08:56:28;100216.63;;;23.89
45701;BMP280;36277;32.852;-116.998;2022-10-13T08:58:55;100208.66;;;23.94
45701;BMP280;36277;32.852;-116.998;2022-10-13T09:01:31;100207.31;;;24.05
45701;BMP280;36277;32.852;-116.998;2022-10-13T09:04:15;100201.00;;;24.11
45701;BMP280;36277;32.852;-116.998;2022-10-13T09:09:28;100209.78;;;24.14
45701;BMP280;36277;32.852;-116.998;2022-10-13T09:11:54;100200.91;;;24.18
45701;BMP280;36277;32.852;-116.998;2022-10-13T09:14:34;100204.53;;;24.19
45701;BMP280;36277;32.852;-116.998;2022-10-13T09:17:20;100204.72;;;24.17
45701;BMP280;36277;32.852;-116.998;2022-10-13T09:22:44;100195.00;;;23.49
45701;BMP280;36277;32.852;-116.998;2022-10-13T09:25:25;100191.63;;;23.02
45701;BMP280;36277;32.852;-116.998;2022-10-13T09:27:55;100188.84;;;22.88
45701;BMP280;36277;32.852;-116.998;2022-10-13T09:32:50;100181.78;;;23.30
45701;BMP280;36277;32.852;-116.998;2022-10-13T09:35:21;100185.38;;;23.45
45701;BMP280;36277;32.852;-116.998;2022-10-13T09:38:04;100179.44;;;23.56
45701;BMP280;36277;32.852;-116.998;2022-10-13T09:40:32;100172.22;;;23.70
45701;BMP280;36277;32.852;-116.998;2022-10-13T09:43:00;100178.56;;;23.70
45701;BMP280;36277;32.852;-116.998;2022-10-13T09:45:27;100180.22;;;23.79
45701;BMP280;36277;32.852;-116.998;2022-10-13T09:47:58;100174.34;;;23.82
45701;BMP280;36277;32.852;-116.998;2022-10-13T09:50:33;100167.38;;;24.01
45701;BMP280;36277;32.852;-116.998;2022-10-13T09:53:33;100161.38;;;23.97
45701;BMP280;36277;32.852;-116.998;2022-10-13T10:01:39;100157.03;;;24.03
45701;BMP280;36277;32.852;-116.998;2022-10-13T10:04:12;100155.66;;;24.13
45701;BMP280;36277;32.852;-116.998;2022-10-13T10:06:39;100148.59;;;24.25
45701;BMP280;36277;32.852;-116.998;2022-10-13T10:11:46;100142.25;;;24.10
45701;BMP280;36277;32.852;-116.998;2022-10-13T10:14:28;100140.56;;;24.09
45701;BMP280;36277;32.852;-116.998;2022-10-13T10:28:03;100132.84;;;23.18
45701;BMP280;36277;32.852;-116.998;2022-10-13T10:30:35;100120.56;;;23.06
45701;BMP280;36277;32.852;-116.998;2022-10-13T10:33:12;100128.50;;;23.38
45701;BMP280;36277;32.852;-116.998;2022-10-13T10:44:22;100110.19;;;23.88
45701;BMP280;36277;32.852;-116.998;2022-10-13T10:46:54;100110.03;;;23.96
45701;BMP280;36277;32.852;-116.998;2022-10-13T10:49:33;100107.22;;;23.90
45701;BMP280;36277;32.852;-116.998;2022-10-13T10:52:02;100102.34;;;24.06
45701;BMP280;36277;32.852;-116.998;2022-10-13T10:54:40;100110.88;;;24.11
45701;BMP280;36277;32.852;-116.998;2022-10-13T10:57:32;100109.94;;;24.04
45701;BMP280;36277;32.852;-116.998;2022-10-13T10:59:59;100100.78;;;24.18
45701;BMP280;36277;32.852;-116.998;2022-10-13T11:05:17;100107.88;;;24.27
45701;BMP280;36277;32.852;-116.998;2022-10-13T11:15:23;100105.78;;;23.36
45701;BMP280;36277;32.852;-116.998;2022-10-13T11:17:51;100114.16;;;23.13
45701;BMP280;36277;32.852;-116.998;2022-10-13T11:30:52;100101.81;;;23.67
45701;BMP280;36277;32.852;-116.998;2022-10-13T11:48:06;100117.22;;;24.12
45701;BMP280;36277;32.852;-116.998;2022-10-13T11:51:03;100110.84;;;24.25
45701;BMP280;36277;32.852;-116.998;2022-10-13T11:56:21;100114.59;;;24.39
45701;BMP280;36277;32.852;-116.998;2022-10-13T11:58:47;100120.13;;;24.39
45701;BMP280;36277;32.852;-116.998;2022-10-13T12:01:15;100115.53;;;24.46
45701;BMP280;36277;32.852;-116.998;2022-10-13T12:03:44;100117.84;;;24.28
45701;BMP280;36277;32.852;-116.998;2022-10-13T12:08:48;100121.88;;;23.47
45701;BMP280;36277;32.852;-116.998;2022-10-13T12:11:32;100126.69;;;23.30
45701;BMP280;36277;32.852;-116.998;2022-10-13T12:14:00;100124.97;;;23.29
45701;BMP280;36277;32.852;-116.998;2022-10-13T12:16:28;100125.19;;;23.57
45701;BMP280;36277;32.852;-116.998;2022-10-13T12:19:06;100128.19;;;23.76
45701;BMP280;36277;32.852;-116.998;2022-10-13T12:21:33;100125.19;;;23.86
45701;BMP280;36277;32.852;-116.998;2022-10-13T12:24:11;100125.38;;;23.99
45701;BMP280;36277;32.852;-116.998;2022-10-13T12:26:38;100116.75;;;23.87
45701;BMP280;36277;32.852;-116.998;2022-10-13T12:29:10;100134.69;;;23.98
45701;BMP280;36277;32.852;-116.998;2022-10-13T12:31:40;100126.41;;;23.98
45701;BMP280;36277;32.852;-116.998;2022-10-13T12:37:10;100127.91;;;24.00
45701;BMP280;36277;32.852;-116.998;2022-10-13T12:39:34;100128.50;;;23.96
45701;BMP280;36277;32.852;-116.998;2022-10-13T12:42:02;100130.28;;;24.03
45701;BMP280;36277;32.852;-116.998;2022-10-13T12:44:31;100132.84;;;24.19
45701;BMP280;36277;32.852;-116.998;2022-10-13T12:46:59;100128.50;;;24.31
45701;BMP280;36277;32.852;-116.998;2022-10-13T12:49:37;100123.72;;;24.39
45701;BMP280;36277;32.852;-116.998;2022-10-13T12:52:16;100132.47;;;24.43
45701;BMP280;36277;32.852;-116.998;2022-10-13T12:54:51;100132.09;;;24.46
45701;BMP280;36277;32.852;-116.998;2022-10-13T12:57:43;100138.09;;;24.49
45701;BMP280;36277;32.852;-116.998;2022-10-13T13:03:00;100129.09;;;24.26
45701;BMP280;36277;32.852;-116.998;2022-10-13T13:05:38;100135.72;;;24.32
45701;BMP280;36277;32.852;-116.998;2022-10-13T13:08:25;100126.34;;;24.26
45701;BMP280;36277;32.852;-116.998;2022-10-13T13:10:56;100134.53;;;24.20
45701;BMP280;36277;32.852;-116.998;2022-10-13T13:13:23;100138.09;;;24.00
45701;BMP280;36277;32.852;-116.998;2022-10-13T13:15:50;100139.59;;;23.73
45701;BMP280;36277;32.852;-116.998;2022-10-13T13:20:52;100135.16;;;23.58
45701;BMP280;36277;32.852;-116.998;2022-10-13T13:23:20;100135.56;;;23.69
45701;BMP280;36277;32.852;-116.998;2022-10-13T13:25:59;100135.16;;;23.87
45701;BMP280;36277;32.852;-116.998;2022-10-13T13:28:31;100134.22;;;23.94
45701;BMP280;36277;32.852;-116.998;2022-10-13T13:30:58;100134.09;;;24.02
45701;BMP280;36277;32.852;-116.998;2022-10-13T13:33:25;100134.16;;;24.09
45701;BMP280;36277;32.852;-116.998;2022-10-13T13:35:52;100133.22;;;24.16
45701;BMP280;36277;32.852;-116.998;2022-10-13T13:38:18;100139.00;;;24.21
45701;BMP280;36277;32.852;-116.998;2022-10-13T13:40:45;100138.22;;;24.27
45701;BMP280;36277;32.852;-116.998;2022-10-13T13:43:11;100134.03;;;24.31
45701;BMP280;36277;32.852;-116.998;2022-10-13T13:45:37;100139.16;;;24.34
45701;BMP280;36277;32.852;-116.998;2022-10-13T13:48:04;100129.44;;;24.38
45701;BMP280;36277;32.852;-116.998;2022-10-13T13:50:35;100131.41;;;24.44
45701;BMP280;36277;32.852;-116.998;2022-10-13T13:53:02;100135.91;;;24.45
45701;BMP280;36277;32.852;-116.998;2022-10-13T13:55:29;100138.25;;;24.48
45701;BMP280;36277;32.852;-116.998;2022-10-13T13:57:56;100136.16;;;24.50
45701;BMP280;36277;32.852;-116.998;2022-10-13T14:00:22;100137.47;;;24.54
45701;BMP280;36277;32.852;-116.998;2022-10-13T14:02:49;100137.31;;;24.55
45701;BMP280;36277;32.852;-116.998;2022-10-13T14:05:15;100132.31;;;24.30
45701;BMP280;36277;32.852;-116.998;2022-10-13T14:07:42;100126.50;;;23.90
45701;BMP280;36277;32.852;-116.998;2022-10-13T14:10:09;100134.09;;;23.73
45701;BMP280;36277;32.852;-116.998;2022-10-13T14:12:36;100132.78;;;23.40
45701;BMP280;36277;32.852;-116.998;2022-10-13T14:15:02;100135.53;;;23.40
45701;BMP280;36277;32.852;-116.998;2022-10-13T14:17:29;100144.00;;;23.53
45701;BMP280;36277;32.852;-116.998;2022-10-13T14:19:55;100143.41;;;23.72
45701;BMP280;36277;32.852;-116.998;2022-10-13T14:22:21;100142.75;;;23.85
45701;BMP280;36277;32.852;-116.998;2022-10-13T14:24:48;100147.34;;;23.78
45701;BMP280;36277;32.852;-116.998;2022-10-13T14:27:14;100144.22;;;23.95
45701;BMP280;36277;32.852;-116.998;2022-10-13T14:29:40;100140.97;;;23.92
45701;BMP280;36277;32.852;-116.998;2022-10-13T14:32:06;100145.50;;;23.99
45701;BMP280;36277;32.852;-116.998;2022-10-13T14:34:32;100147.78;;;24.10
45701;BMP280;36277;32.852;-116.998;2022-10-13T14:36:59;100152.81;;;24.21
45701;BMP280;36277;32.852;-116.998;2022-10-13T14:41:51;100145.38;;;24.21
45701;BMP280;36277;32.852;-116.998;2022-10-13T14:44:17;100154.88;;;24.33
45701;BMP280;36277;32.852;-116.998;2022-10-13T14:46:44;100160.44;;;24.40
45701;BMP280;36277;32.852;-116.998;2022-10-13T14:49:10;100153.59;;;24.36
45701;BMP280;36277;32.852;-116.998;2022-10-13T14:51:37;100151.78;;;24.43
45701;BMP280;36277;32.852;-116.998;2022-10-13T14:54:03;100159.13;;;24.36
45701;BMP280;36277;32.852;-116.998;2022-10-13T14:56:32;100149.31;;;24.48
45701;BMP280;36277;32.852;-116.998;2022-10-13T14:59:00;100156.41;;;24.57
45701;BMP280;36277;32.852;-116.998;2022-10-13T15:01:27;100159.00;;;24.58
45701;BMP280;36277;32.852;-116.998;2022-10-13T15:03:54;100164.09;;;24.61
45701;BMP280;36277;32.852;-116.998;2022-10-13T15:06:22;100163.72;;;24.64
45701;BMP280;36277;32.852;-116.998;2022-10-13T15:08:49;100168.84;;;24.67
45701;BMP280;36277;32.852;-116.998;2022-10-13T15:11:17;100169.50;;;24.69
45701;BMP280;36277;32.852;-116.998;2022-10-13T15:13:44;100161.44;;;24.68
45701;BMP280;36277;32.852;-116.998;2022-10-13T15:16:25;100179.94;;;24.74
45701;BMP280;36277;32.852;-116.998;2022-10-13T15:18:53;100172.91;;;24.71
45701;BMP280;36277;32.852;-116.998;2022-10-13T15:21:20;100175.22;;;24.68
45701;BMP280;36277;32.852;-116.998;2022-10-13T15:23:46;100185.16;;;24.48